sensor_id;sensor_type;location;lat;lon;timestamp;P1;durP1;ratioP1;P2;durP2;ratioP2
7933;SDS011;4012;48.896;9.192;2023-10-13T00:01:44;14.43;;;8.30;;
7933;SDS011;4012;48.896;9.192;2023-10-13T00:04:12;12.43;;;7.87;;
7933;SDS011;4012;48.896;9.192;2023-10-13T00:06:37;19.53;;;8.27;;
7933;SDS011;4012;48.896;9.192;2023-10-13T00:09:03;12.53;;;7.87;;
7933;SDS011;4012;48.896;9.192;2023-10-13T00:11:29;11.70;;;7.67;;
7933;SDS011;4012;48.896;9.192;2023-10-13T00:13:55;13.97;;;8.17;;
7933;SDS011;4012;48.896;9.192;2023-10-13T00:16:21;15.63;;;8.40;;
7933;SDS011;4012;48.896;9.192;2023-10-13T00:18:50;13.73;;;6.90;;
7933;SDS011;4012;48.896;9.192;2023-10-13T00:21:19;15.30;;;7.93;;
7933;SDS011;4012;48.896;9.192;2023-10-13T00:23:56;12.77;;;7.20;;
7933;SDS011;4012;48.896;9.192;2023-10-13T00:26:23;12.40;;;7.63;;
7933;SDS011;4012;48.896;9.192;2023-10-13T00:28:52;11.13;;;7.13;;
7933;SDS011;4012;48.896;9.192;2023-10-13T00:31:38;18.93;;;8.03;;
7933;SDS011;4012;48.896;9.192;2023-10-13T00:34:10;20.47;;;7.60;;
7933;SDS011;4012;48.896;9.192;2023-10-13T00:36:44;11.77;;;7.03;;
7933;SDS011;4012;48.896;9.192;2023-10-13T00:39:28;16.63;;;6.90;;
7933;SDS011;4012;48.896;9.192;2023-10-13T00:41:54;9.23;;;6.43;;
7933;SDS011;4012;48.896;9.192;2023-10-13T00:44:31;11.87;;;6.60;;
7933;SDS011;4012;48.896;9.192;2023-10-13T00:47:13;12.80;;;5.87;;
7933;SDS011;4012;48.896;9.192;2023-10-13T00:49:48;11.23;;;5.67;;
7933;SDS011;4012;48.896;9.192;2023-10-13T00:52:14;10.40;;;5.93;;
7933;SDS011;4012;48.896;9.192;2023-10-13T00:54:43;8.53;;;5.27;;
7933;SDS011;4012;48.896;9.192;2023-10-13T00:57:12;11.23;;;5.40;;
7933;SDS011;4012;48.896;9.192;2023-10-13T00:59:57;16.47;;;5.60;;
7933;SDS011;4012;48.896;9.192;2023-10-13T01:02:24;10.47;;;5.97;;
7933;SDS011;4012;48.896;9.192;2023-10-13T01:05:03;10.97;;;5.43;;
7933;SDS011;4012;48.896;9.192;2023-10-13T01:07:29;8.80;;;5.47;;
7933;SDS011;4012;48.896;9.192;2023-10-13T01:09:55;8.63;;;5.23;;
7933;SDS011;4012;48.896;9.192;2023-10-13T01:12:21;8.60;;;5.50;;
7933;SDS011;4012;48.896;9.192;2023-10-13T01:14:50;10.60;;;6.07;;
7933;SDS011;4012;48.896;9.192;2023-10-13T01:17:16;8.63;;;5.60;;
7933;SDS011;4012;48.896;9.192;2023-10-13T01:19:41;7.33;;;5.47;;
7933;SDS011;4012;48.896;9.192;2023-10-13T01:22:08;8.67;;;6.10;;
7933;SDS011;4012;48.896;9.192;2023-10-13T01:24:34;9.63;;;5.43;;
7933;SDS011;4012;48.896;9.192;2023-10-13T01:27:03;15.30;;;5.20;;
7933;SDS011;4012;48.896;9.192;2023-10-13T01:29:43;8.47;;;4.93;;
7933;SDS011;4012;48.896;9.192;2023-10-13T01:32:23;10.40;;;5.63;;
7933;SDS011;4012;48.896;9.192;2023-10-13T01:34:49;9.27;;;5.60;;
7933;SDS011;4012;48.896;9.192;2023-10-13T01:37:20;10.03;;;5.07;;
7933;SDS011;4012;48.896;9.192;2023-10-13T01:39:46;9.93;;;5.20;;
7933;SDS011;4012;48.896;9.192;2023-10-13T01:42:14;9.43;;;5.47;;
7933;SDS011;4012;48.896;9.192;2023-10-13T01:44:44;8.83;;;5.30;;
7933;SDS011;4012;48.896;9.192;2023-10-13T01:47:10;8.03;;;4.70;;
7933;SDS011;4012;48.896;9.192;2023-10-13T01:49:37;10.20;;;4.60;;
7933;SDS011;4012;48.896;9.192;2023-10-13T01:52:23;8.70;;;5.37;;
7933;SDS011;4012;48.896;9.192;2023-10-13T01:54:50;7.23;;;4.57;;
7933;SDS011;4012;48.896;9.192;2023-10-13T01:57:16;8.60;;;4.67;;
7933;SDS011;4012;48.896;9.192;2023-10-13T01:59:49;11.60;;;4.73;;
7933;SDS011;4012;48.896;9.192;2023-10-13T02:02:15;10.73;;;4.20;;
7933;SDS011;4012;48.896;9.192;2023-10-13T02:04:51;9.10;;;4.37;;
7933;SDS011;4012;48.896;9.192;2023-10-13T02:07:27;8.70;;;4.23;;
7933;SDS011;4012;48.896;9.192;2023-10-13T02:09:55;10.90;;;4.57;;
7933;SDS011;4012;48.896;9.192;2023-10-13T02:12:21;8.07;;;4.67;;
7933;SDS011;4012;48.896;9.192;2023-10-13T02:15:13;8.00;;;4.23;;
7933;SDS011;4012;48.896;9.192;2023-10-13T02:17:52;9.93;;;4.33;;
7933;SDS011;4012;48.896;9.192;2023-10-13T02:20:20;10.07;;;4.43;;
7933;SDS011;4012;48.896;9.192;2023-10-13T02:22:50;6.30;;;3.70;;
7933;SDS011;4012;48.896;9.192;2023-10-13T02:25:16;7.00;;;4.10;;
7933;SDS011;4012;48.896;9.192;2023-10-13T02:28:00;8.43;;;4.30;;
7933;SDS011;4012;48.896;9.192;2023-10-13T02:30:36;7.13;;;4.17;;
7933;SDS011;4012;48.896;9.192;2023-10-13T02:33:03;6.60;;;4.13;;
7933;SDS011;4012;48.896;9.192;2023-10-13T02:35:31;9.07;;;3.80;;
7933;SDS011;4012;48.896;9.192;2023-10-13T02:38:06;9.97;;;4.03;;
7933;SDS011;4012;48.896;9.192;2023-10-13T02:40:38;6.13;;;3.67;;
7933;SDS011;4012;48.896;9.192;2023-10-13T02:43:04;9.80;;;3.40;;
7933;SDS011;4012;48.896;9.192;2023-10-13T02:45:31;7.40;;;3.90;;
7933;SDS011;4012;48.896;9.192;2023-10-13T02:47:57;7.73;;;3.73;;
7933;SDS011;4012;48.896;9.192;2023-10-13T02:50:39;6.03;;;3.57;;
7933;SDS011;4012;48.896;9.192;2023-10-13T02:53:10;7.73;;;3.83;;
7933;SDS011;4012;48.896;9.192;2023-10-13T02:55:59;7.97;;;3.73;;
7933;SDS011;4012;48.896;9.192;2023-10-13T02:58:30;5.67;;;3.57;;
7933;SDS011;4012;48.896;9.192;2023-10-13T03:01:08;5.87;;;3.63;;
7933;SDS011;4012;48.896;9.192;2023-10-13T03:03:42;7.73;;;4.00;;
7933;SDS011;4012;48.896;9.192;2023-10-13T03:06:08;6.03;;;3.50;;
7933;SDS011;4012;48.896;9.192;2023-10-13T03:08:37;5.50;;;3.77;;
7933;SDS011;4012;48.896;9.192;2023-10-13T03:11:03;6.57;;;3.37;;
7933;SDS011;4012;48.896;9.192;2023-10-13T03:13:30;6.90;;;3.70;;
7933;SDS011;4012;48.896;9.192;2023-10-13T03:15:58;6.93;;;4.23;;
7933;SDS011;4012;48.896;9.192;2023-10-13T03:18:24;7.57;;;4.00;;
7933;SDS011;4012;48.896;9.192;2023-10-13T03:20:50;6.03;;;3.50;;
7933;SDS011;4012;48.896;9.192;2023-10-13T03:23:21;6.83;;;3.43;;
7933;SDS011;4012;48.896;9.192;2023-10-13T03:25:50;8.03;;;3.87;;
7933;SDS011;4012;48.896;9.192;2023-10-13T03:28:23;7.20;;;3.93;;
7933;SDS011;4012;48.896;9.192;2023-10-13T03:30:58;6.50;;;3.90;;
7933;SDS011;4012;48.896;9.192;2023-10-13T03:33:26;7.70;;;4.17;;
7933;SDS011;4012;48.896;9.192;2023-10-13T03:35:52;6.13;;;4.03;;
7933;SDS011;4012;48.896;9.192;2023-10-13T03:38:24;7.97;;;3.37;;
7933;SDS011;4012;48.896;9.192;2023-10-13T03:40:52;8.57;;;3.60;;
7933;SDS011;4012;48.896;9.192;2023-10-13T03:43:45;9.37;;;3.80;;
7933;SDS011;4012;48.896;9.192;2023-10-13T03:46:16;7.70;;;4.70;;
7933;SDS011;4012;48.896;9.192;2023-10-13T03:48:46;6.20;;;4.10;;
7933;SDS011;4012;48.896;9.192;2023-10-13T03:51:26;12.53;;;4.00;;
7933;SDS011;4012;48.896;9.192;2023-10-13T03:53:56;5.83;;;3.50;;
7933;SDS011;4012;48.896;9.192;2023-10-13T03:56:26;8.07;;;3.53;;
7933;SDS011;4012;48.896;9.192;2023-10-13T03:59:04;5.50;;;3.70;;
7933;SDS011;4012;48.896;9.192;2023-10-13T04:01:43;9.23;;;3.40;;
7933;SDS011;4012;48.896;9.192;2023-10-13T04:04:16;5.83;;;3.80;;
7933;SDS011;4012;48.896;9.192;2023-10-13T04:07:01;9.07;;;4.23;;
7933;SDS011;4012;48.896;9.192;2023-10-13T04:09:30;8.03;;;4.37;;
7933;SDS011;4012;48.896;9.192;2023-10-13T04:12:02;10.93;;;3.80;;
7933;SDS011;4012;48.896;9.192;2023-10-13T04:17:17;5.00;;;3.57;;
7933;SDS011;4012;48.896;9.192;2023-10-13T04:19:51;5.17;;;3.60;;
7933;SDS011;4012;48.896;9.192;2023-10-13T04:22:39;8.17;;;3.93;;
7933;SDS011;4012;48.896;9.192;2023-10-13T04:27:58;7.30;;;3.93;;
7933;SDS011;4012;48.896;9.192;2023-10-13T04:30:39;7.20;;;3.80;;
7933;SDS011;4012;48.896;9.192;2023-10-13T04:33:20;6.00;;;3.97;;
7933;SDS011;4012;48.896;9.192;2023-10-13T04:36:11;8.27;;;3.80;;
7933;SDS011;4012;48.896;9.192;2023-10-13T04:38:47;15.63;;;5.00;;
7933;SDS011;4012;48.896;9.192;2023-10-13T04:44:08;12.27;;;4.70;;
7933;SDS011;4012;48.896;9.192;2023-10-13T04:46:55;8.00;;;4.30;;
7933;SDS011;4012;48.896;9.192;2023-10-13T04:49:24;18.57;;;4.77;;
7933;SDS011;4012;48.896;9.192;2023-10-13T04:51:57;8.53;;;3.90;;
7933;SDS011;4012;48.896;9.192;2023-10-13T04:54:28;8.10;;;4.27;;
7933;SDS011;4012;48.896;9.192;2023-10-13T04:57:13;7.37;;;4.00;;
7933;SDS011;4012;48.896;9.192;2023-10-13T04:59:59;7.40;;;4.20;;
7933;SDS011;4012;48.896;9.192;2023-10-13T05:02:36;6.73;;;4.30;;
7933;SDS011;4012;48.896;9.192;2023-10-13T05:05:07;7.20;;;4.00;;
7933;SDS011;4012;48.896;9.192;2023-10-13T05:07:43;9.03;;;4.00;;
7933;SDS011;4012;48.896;9.192;2023-10-13T05:10:31;11.27;;;4.73;;
7933;SDS011;4012;48.896;9.192;2023-10-13T05:13:17;7.83;;;4.30;;
7933;SDS011;4012;48.896;9.192;2023-10-13T05:16:01;8.20;;;4.87;;
7933;SDS011;4012;48.896;9.192;2023-10-13T05:18:45;6.70;;;3.70;;
7933;SDS011;4012;48.896;9.192;2023-10-13T05:21:29;12.77;;;4.20;;
7933;SDS011;4012;48.896;9.192;2023-10-13T05:24:14;8.13;;;4.77;;
7933;SDS011;4012;48.896;9.192;2023-10-13T05:26:58;11.30;;;4.63;;
7933;SDS011;4012;48.896;9.192;2023-10-13T05:29:42;7.30;;;4.57;;
7933;SDS011;4012;48.896;9.192;2023-10-13T05:32:28;13.10;;;4.07;;
7933;SDS011;4012;48.896;9.192;2023-10-13T05:35:12;14.90;;;4.63;;
7933;SDS011;4012;48.896;9.192;2023-10-13T05:37:57;10.50;;;4.03;;
7933;SDS011;4012;48.896;9.192;2023-10-13T05:41:01;8.57;;;4.20;;
7933;SDS011;4012;48.896;9.192;2023-10-13T05:43:48;7.40;;;4.67;;
7933;SDS011;4012;48.896;9.192;2023-10-13T05:46:33;15.73;;;4.73;;
7933;SDS011;4012;48.896;9.192;2023-10-13T05:49:05;8.57;;;4.77;;
7933;SDS011;4012;48.896;9.192;2023-10-13T05:51:32;8.07;;;5.23;;
7933;SDS011;4012;48.896;9.192;2023-10-13T05:54:09;8.13;;;4.90;;
7933;SDS011;4012;48.896;9.192;2023-10-13T05:56:41;6.93;;;4.17;;
7933;SDS011;4012;48.896;9.192;2023-10-13T05:59:36;13.03;;;4.77;;
7933;SDS011;4012;48.896;9.192;2023-10-13T06:02:21;8.63;;;5.03;;
7933;SDS011;4012;48.896;9.192;2023-10-13T06:05:07;6.97;;;4.90;;
7933;SDS011;4012;48.896;9.192;2023-10-13T06:07:52;9.63;;;5.17;;
7933;SDS011;4012;48.896;9.192;2023-10-13T06:10:37;6.87;;;4.67;;
7933;SDS011;4012;48.896;9.192;2023-10-13T06:13:22;8.60;;;5.20;;
7933;SDS011;4012;48.896;9.192;2023-10-13T06:16:10;13.80;;;5.03;;
7933;SDS011;4012;48.896;9.192;2023-10-13T06:18:58;9.40;;;5.03;;
7933;SDS011;4012;48.896;9.192;2023-10-13T06:21:43;11.10;;;4.87;;
7933;SDS011;4012;48.896;9.192;2023-10-13T06:24:28;8.70;;;4.70;;
7933;SDS011;4012;48.896;9.192;2023-10-13T06:27:12;6.43;;;4.20;;
7933;SDS011;4012;48.896;9.192;2023-10-13T06:29:58;10.00;;;4.07;;
7933;SDS011;4012;48.896;9.192;2023-10-13T06:32:23;12.70;;;5.07;;
7933;SDS011;4012;48.896;9.192;2023-10-13T06:34:52;13.27;;;4.40;;
7933;SDS011;4012;48.896;9.192;2023-10-13T06:37:23;9.80;;;5.00;;
7933;SDS011;4012;48.896;9.192;2023-10-13T06:39:55;11.07;;;4.80;;
7933;SDS011;4012;48.896;9.192;2023-10-13T06:42:22;9.07;;;4.60;;
7933;SDS011;4012;48.896;9.192;2023-10-13T06:44:52;11.27;;;4.93;;
7933;SDS011;4012;48.896;9.192;2023-10-13T06:47:19;11.17;;;4.40;;
7933;SDS011;4012;48.896;9.192;2023-10-13T06:49:45;7.90;;;4.70;;
7933;SDS011;4012;48.896;9.192;2023-10-13T06:52:13;9.03;;;5.30;;
7933;SDS011;4012;48.896;9.192;2023-10-13T06:54:41;8.03;;;4.77;;
7933;SDS011;4012;48.896;9.192;2023-10-13T06:57:08;11.57;;;5.33;;
7933;SDS011;4012;48.896;9.192;2023-10-13T06:59:39;9.73;;;5.07;;
7933;SDS011;4012;48.896;9.192;2023-10-13T07:02:06;10.23;;;4.73;;
7933;SDS011;4012;48.896;9.192;2023-10-13T07:04:34;13.57;;;5.23;;
7933;SDS011;4012;48.896;9.192;2023-10-13T07:07:04;11.33;;;4.43;;
7933;SDS011;4012;48.896;9.192;2023-10-13T07:09:34;8.50;;;4.83;;
7933;SDS011;4012;48.896;9.192;2023-10-13T07:12:00;7.80;;;4.77;;
7933;SDS011;4012;48.896;9.192;2023-10-13T07:14:28;12.90;;;4.90;;
7933;SDS011;4012;48.896;9.192;2023-10-13T07:17:05;13.03;;;5.07;;
7933;SDS011;4012;48.896;9.192;2023-10-13T07:19:33;11.80;;;4.67;;
7933;SDS011;4012;48.896;9.192;2023-10-13T07:21:59;10.00;;;5.07;;
7933;SDS011;4012;48.896;9.192;2023-10-13T07:24:44;10.37;;;5.40;;
7933;SDS011;4012;48.896;9.192;2023-10-13T07:27:18;10.40;;;4.60;;
7933;SDS011;4012;48.896;9.192;2023-10-13T07:29:51;13.47;;;4.73;;
7933;SDS011;4012;48.896;9.192;2023-10-13T07:32:42;10.93;;;5.50;;
7933;SDS011;4012;48.896;9.192;2023-10-13T07:35:14;15.23;;;5.40;;
7933;SDS011;4012;48.896;9.192;2023-10-13T07:37:42;12.43;;;4.87;;
7933;SDS011;4012;48.896;9.192;2023-10-13T07:40:09;9.33;;;4.67;;
7933;SDS011;4012;48.896;9.192;2023-10-13T07:43:04;14.67;;;4.60;;
7933;SDS011;4012;48.896;9.192;2023-10-13T07:45:35;8.27;;;4.43;;
7933;SDS011;4012;48.896;9.192;2023-10-13T07:48:06;17.10;;;5.20;;
7933;SDS011;4012;48.896;9.192;2023-10-13T07:50:40;9.03;;;4.87;;
7933;SDS011;4012;48.896;9.192;2023-10-13T07:53:06;9.87;;;4.27;;
7933;SDS011;4012;48.896;9.192;2023-10-13T07:55:48;11.30;;;4.60;;
7933;SDS011;4012;48.896;9.192;2023-10-13T07:58:20;11.83;;;4.73;;
7933;SDS011;4012;48.896;9.192;2023-10-13T08:00:50;12.30;;;4.80;;
7933;SDS011;4012;48.896;9.192;2023-10-13T08:03:31;10.40;;;5.13;;
7933;SDS011;4012;48.896;9.192;2023-10-13T08:06:02;7.43;;;4.27;;
7933;SDS011;4012;48.896;9.192;2023-10-13T08:08:31;11.83;;;4.87;;
7933;SDS011;4012;48.896;9.192;2023-10-13T08:11:07;14.40;;;5.07;;
7933;SDS011;4012;48.896;9.192;2023-10-13T08:13:56;10.90;;;4.50;;
7933;SDS011;4012;48.896;9.192;2023-10-13T08:16:35;8.60;;;4.37;;
7933;SDS011;4012;48.896;9.192;2023-10-13T08:19:14;11.30;;;4.30;;
7933;SDS011;4012;48.896;9.192;2023-10-13T08:21:42;7.43;;;4.20;;
7933;SDS011;4012;48.896;9.192;2023-10-13T08:24:16;13.13;;;4.57;;
7933;SDS011;4012;48.896;9.192;2023-10-13T08:27:02;11.13;;;4.37;;
7933;SDS011;4012;48.896;9.192;2023-10-13T08:29:42;11.20;;;4.60;;
7933;SDS011;4012;48.896;9.192;2023-10-13T08:32:24;19.27;;;4.73;;
7933;SDS011;4012;48.896;9.192;2023-10-13T08:34:52;8.47;;;4.00;;
7933;SDS011;4012;48.896;9.192;2023-10-13T08:37:18;12.33;;;4.57;;
7933;SDS011;4012;48.896;9.192;2023-10-13T08:39:51;12.60;;;4.57;;
7933;SDS011;4012;48.896;9.192;2023-10-13T08:42:36;11.23;;;4.53;;
7933;SDS011;4012;48.896;9.192;2023-10-13T08:45:09;13.10;;;5.03;;
7933;SDS011;4012;48.896;9.192;2023-10-13T08:47:54;12.13;;;4.60;;
7933;SDS011;4012;48.896;9.192;2023-10-13T08:50:44;11.73;;;4.37;;
7933;SDS011;4012;48.896;9.192;2023-10-13T08:56:01;9.23;;;4.57;;
7933;SDS011;4012;48.896;9.192;2023-10-13T08:58:35;9.57;;;4.00;;
7933;SDS011;4012;48.896;9.192;2023-10-13T09:01:20;10.43;;;4.13;;
7933;SDS011;4012;48.896;9.192;2023-10-13T09:04:24;12.50;;;3.83;;
7933;SDS011;4012;48.896;9.192;2023-10-13T09:07:02;7.30;;;3.83;;
7933;SDS011;4012;48.896;9.192;2023-10-13T09:09:33;7.17;;;3.87;;
7933;SDS011;4012;48.896;9.192;2023-10-13T09:12:14;10.93;;;3.63;;
7933;SDS011;4012;48.896;9.192;2023-10-13T09:14:52;9.13;;;3.80;;
7933;SDS011;4012;48.896;9.192;2023-10-13T09:17:48;9.53;;;3.90;;
7933;SDS011;4012;48.896;9.192;2023-10-13T09:20:38;12.53;;;3.57;;
7933;SDS011;4012;48.896;9.192;2023-10-13T09:23:07;8.53;;;3.47;;
7933;SDS011;4012;48.896;9.192;2023-10-13T09:25:38;6.37;;;3.67;;
7933;SDS011;4012;48.896;9.192;2023-10-13T09:28:18;10.90;;;3.60;;
7933;SDS011;4012;48.896;9.192;2023-10-13T09:33:13;7.27;;;3.90;;
7933;SDS011;4012;48.896;9.192;2023-10-13T09:36:15;8.07;;;3.50;;
7933;SDS011;4012;48.896;9.192;2023-10-13T09:38:42;8.53;;;3.70;;
7933;SDS011;4012;48.896;9.192;2023-10-13T09:41:28;7.73;;;4.00;;
7933;SDS011;4012;48.896;9.192;2023-10-13T09:43:57;13.50;;;4.10;;
7933;SDS011;4012;48.896;9.192;2023-10-13T09:46:23;12.70;;;3.87;;
7933;SDS011;4012;48.896;9.192;2023-10-13T09:48:54;8.47;;;3.77;;
7933;SDS011;4012;48.896;9.192;2023-10-13T09:51:30;15.27;;;4.60;;
7933;SDS011;4012;48.896;9.192;2023-10-13T09:56:40;7.80;;;3.73;;
7933;SDS011;4012;48.896;9.192;2023-10-13T09:59:18;10.27;;;4.20;;
7933;SDS011;4012;48.896;9.192;2023-10-13T10:01:59;8.83;;;3.70;;
7933;SDS011;4012;48.896;9.192;2023-10-13T10:04:33;10.90;;;3.97;;
7933;SDS011;4012;48.896;9.192;2023-10-13T10:07:09;9.90;;;3.20;;
7933;SDS011;4012;48.896;9.192;2023-10-13T10:09:35;8.83;;;3.40;;
7933;SDS011;4012;48.896;9.192;2023-10-13T10:14:42;19.23;;;4.77;;
7933;SDS011;4012;48.896;9.192;2023-10-13T10:17:38;6.73;;;2.90;;
7933;SDS011;4012;48.896;9.192;2023-10-13T10:20:08;8.87;;;3.50;;
7933;SDS011;4012;48.896;9.192;2023-10-13T10:22:56;14.27;;;4.03;;
7933;SDS011;4012;48.896;9.192;2023-10-13T10:25:33;8.63;;;3.80;;
7933;SDS011;4012;48.896;9.192;2023-10-13T10:28:06;9.93;;;3.70;;
7933;SDS011;4012;48.896;9.192;2023-10-13T10:30:34;14.40;;;3.20;;
7933;SDS011;4012;48.896;9.192;2023-10-13T10:33:04;11.87;;;3.33;;
7933;SDS011;4012;48.896;9.192;2023-10-13T10:35:37;7.73;;;3.60;;
7933;SDS011;4012;48.896;9.192;2023-10-13T10:38:09;5.90;;;3.60;;
7933;SDS011;4012;48.896;9.192;2023-10-13T10:41:00;12.00;;;4.00;;
7933;SDS011;4012;48.896;9.192;2023-10-13T10:46:27;10.97;;;3.60;;
7933;SDS011;4012;48.896;9.192;2023-10-13T10:48:56;8.50;;;3.20;;
7933;SDS011;4012;48.896;9.192;2023-10-13T10:51:26;15.00;;;3.57;;
7933;SDS011;4012;48.896;9.192;2023-10-13T10:53:56;8.00;;;3.73;;
7933;SDS011;4012;48.896;9.192;2023-10-13T10:56:23;8.57;;;3.37;;
7933;SDS011;4012;48.896;9.192;2023-10-13T10:59:03;7.77;;;3.80;;
7933;SDS011;4012;48.896;9.192;2023-10-13T11:01:42;5.60;;;3.27;;
7933;SDS011;4012;48.896;9.192;2023-10-13T11:04:12;9.53;;;3.33;;
7933;SDS011;4012;48.896;9.192;2023-10-13T11:06:49;5.23;;;3.23;;
7933;SDS011;4012;48.896;9.192;2023-10-13T11:09:27;9.07;;;3.20;;
7933;SDS011;4012;48.896;9.192;2023-10-13T11:11:57;10.10;;;3.80;;
7933;SDS011;4012;48.896;9.192;2023-10-13T11:14:40;5.63;;;3.30;;
7933;SDS011;4012;48.896;9.192;2023-10-13T11:17:18;6.47;;;3.60;;
7933;SDS011;4012;48.896;9.192;2023-10-13T11:20:10;7.30;;;3.60;;
7933;SDS011;4012;48.896;9.192;2023-10-13T11:22:41;9.10;;;3.40;;
7933;SDS011;4012;48.896;9.192;2023-10-13T11:25:19;13.33;;;4.30;;
7933;SDS011;4012;48.896;9.192;2023-10-13T11:27:47;6.57;;;3.73;;
7933;SDS011;4012;48.896;9.192;2023-10-13T11:30:13;12.23;;;4.80;;
7933;SDS011;4012;48.896;9.192;2023-10-13T11:32:45;10.20;;;3.53;;
7933;SDS011;4012;48.896;9.192;2023-10-13T11:35:32;7.57;;;3.50;;
7933;SDS011;4012;48.896;9.192;2023-10-13T11:38:14;6.37;;;3.10;;
7933;SDS011;4012;48.896;9.192;2023-10-13T11:40:41;9.93;;;3.27;;
7933;SDS011;4012;48.896;9.192;2023-10-13T11:43:24;11.47;;;3.27;;
7933;SDS011;4012;48.896;9.192;2023-10-13T11:45:50;8.77;;;3.43;;
7933;SDS011;4012;48.896;9.192;2023-10-13T11:48:20;11.40;;;3.20;;
7933;SDS011;4012;48.896;9.192;2023-10-13T11:51:01;12.27;;;4.57;;
7933;SDS011;4012;48.896;9.192;2023-10-13T11:53:36;5.47;;;3.53;;
7933;SDS011;4012;48.896;9.192;2023-10-13T11:56:03;10.73;;;3.23;;
7933;SDS011;4012;48.896;9.192;2023-10-13T11:58:37;7.67;;;3.50;;
7933;SDS011;4012;48.896;9.192;2023-10-13T12:01:04;7.57;;;3.57;;
7933;SDS011;4012;48.896;9.192;2023-10-13T12:03:42;11.00;;;3.67;;
7933;SDS011;4012;48.896;9.192;2023-10-13T12:06:28;8.33;;;3.17;;
7933;SDS011;4012;48.896;9.192;2023-10-13T12:09:00;5.03;;;2.87;;
7933;SDS011;4012;48.896;9.192;2023-10-13T12:11:47;12.53;;;3.40;;
7933;SDS011;4012;48.896;9.192;2023-10-13T12:14:15;6.47;;;3.60;;
7933;SDS011;4012;48.896;9.192;2023-10-13T12:16:48;8.07;;;3.20;;
7933;SDS011;4012;48.896;9.192;2023-10-13T12:19:17;13.90;;;3.80;;
7933;SDS011;4012;48.896;9.192;2023-10-13T12:21:48;5.83;;;3.30;;
7933;SDS011;4012;48.896;9.192;2023-10-13T12:24:21;6.57;;;3.30;;
7933;SDS011;4012;48.896;9.192;2023-10-13T12:27:01;9.40;;;4.20;;
7933;SDS011;4012;48.896;9.192;2023-10-13T12:29:48;10.83;;;4.70;;
7933;SDS011;4012;48.896;9.192;2023-10-13T12:32:14;14.10;;;3.87;;
7933;SDS011;4012;48.896;9.192;2023-10-13T12:34:45;11.63;;;3.27;;
7933;SDS011;4012;48.896;9.192;2023-10-13T12:37:30;10.53;;;3.37;;
7933;SDS011;4012;48.896;9.192;2023-10-13T12:40:09;6.63;;;2.90;;
7933;SDS011;4012;48.896;9.192;2023-10-13T12:42:58;7.07;;;3.37;;
7933;SDS011;4012;48.896;9.192;2023-10-13T12:45:42;7.50;;;3.03;;
7933;SDS011;4012;48.896;9.192;2023-10-13T12:48:28;6.23;;;3.30;;
7933;SDS011;4012;48.896;9.192;2023-10-13T12:51:13;8.17;;;3.60;;
7933;SDS011;4012;48.896;9.192;2023-10-13T12:54:04;8.27;;;3.63;;
7933;SDS011;4012;48.896;9.192;2023-10-13T12:56:31;9.23;;;3.43;;
7933;SDS011;4012;48.896;9.192;2023-10-13T12:58:57;9.10;;;3.10;;
7933;SDS011;4012;48.896;9.192;2023-10-13T13:01:25;9.50;;;3.20;;
7933;SDS011;4012;48.896;9.192;2023-10-13T13:03:57;6.70;;;3.47;;
7933;SDS011;4012;48.896;9.192;2023-10-13T13:06:24;8.60;;;3.53;;
7933;SDS011;4012;48.896;9.192;2023-10-13T13:08:54;10.80;;;4.00;;
7933;SDS011;4012;48.896;9.192;2023-10-13T13:11:21;8.73;;;3.03;;
7933;SDS011;4012;48.896;9.192;2023-10-13T13:13:47;8.13;;;3.60;;
7933;SDS011;4012;48.896;9.192;2023-10-13T13:16:13;9.47;;;3.33;;
7933;SDS011;4012;48.896;9.192;2023-10-13T13:18:39;12.77;;;3.67;;
7933;SDS011;4012;48.896;9.192;2023-10-13T13:21:05;6.73;;;3.60;;
7933;SDS011;4012;48.896;9.192;2023-10-13T13:23:37;7.93;;;3.13;;
7933;SDS011;4012;48.896;9.192;2023-10-13T13:26:05;5.80;;;3.30;;
7933;SDS011;4012;48.896;9.192;2023-10-13T13:28:41;10.20;;;3.07;;
7933;SDS011;4012;48.896;9.192;2023-10-13T13:31:07;5.67;;;3.20;;
7933;SDS011;4012;48.896;9.192;2023-10-13T13:33:33;5.33;;;2.67;;
7933;SDS011;4012;48.896;9.192;2023-10-13T13:36:04;8.37;;;3.03;;
7933;SDS011;4012;48.896;9.192;2023-10-13T13:38:30;9.93;;;3.27;;
7933;SDS011;4012;48.896;9.192;2023-10-13T13:40:57;11.17;;;3.30;;
7933;SDS011;4012;48.896;9.192;2023-10-13T13:43:23;10.17;;;3.50;;
7933;SDS011;4012;48.896;9.192;2023-10-13T13:46:16;9.33;;;3.53;;
7933;SDS011;4012;48.896;9.192;2023-10-13T13:48:42;7.40;;;2.90;;
7933;SDS011;4012;48.896;9.192;2023-10-13T13:51:08;21.23;;;3.10;;
7933;SDS011;4012;48.896;9.192;2023-10-13T13:53:43;9.57;;;3.57;;
7933;SDS011;4012;48.896;9.192;2023-10-13T13:56:13;10.40;;;3.30;;
7933;SDS011;4012;48.896;9.192;2023-10-13T13:58:46;7.23;;;3.53;;
7933;SDS011;4012;48.896;9.192;2023-10-13T14:01:18;8.03;;;3.43;;
7933;SDS011;4012;48.896;9.192;2023-10-13T14:03:48;15.23;;;3.90;;
7933;SDS011;4012;48.896;9.192;2023-10-13T14:06:18;5.70;;;3.20;;
7933;SDS011;4012;48.896;9.192;2023-10-13T14:08:55;8.23;;;3.17;;
7933;SDS011;4012;48.896;9.192;2023-10-13T14:11:26;5.67;;;3.20;;
7933;SDS011;4012;48.896;9.192;2023-10-13T14:14:03;6.27;;;3.10;;
7933;SDS011;4012;48.896;9.192;2023-10-13T14:16:37;4.20;;;3.10;;
7933;SDS011;4012;48.896;9.192;2023-10-13T14:19:13;4.53;;;2.97;;
7933;SDS011;4012;48.896;9.192;2023-10-13T14:21:54;7.53;;;3.27;;
7933;SDS011;4012;48.896;9.192;2023-10-13T14:24:23;11.57;;;2.87;;
7933;SDS011;4012;48.896;9.192;2023-10-13T14:26:53;7.57;;;3.23;;
7933;SDS011;4012;48.896;9.192;2023-10-13T14:29:27;8.50;;;3.60;;
7933;SDS011;4012;48.896;9.192;2023-10-13T14:31:52;12.27;;;9.23;;
7933;SDS011;4012;48.896;9.192;2023-10-13T14:34:18;4.93;;;3.00;;
7933;SDS011;4012;48.896;9.192;2023-10-13T14:36:47;6.70;;;3.50;;
7933;SDS011;4012;48.896;9.192;2023-10-13T14:39:13;8.67;;;3.53;;
7933;SDS011;4012;48.896;9.192;2023-10-13T14:41:39;6.53;;;3.47;;
7933;SDS011;4012;48.896;9.192;2023-10-13T14:44:05;5.00;;;3.20;;
7933;SDS011;4012;48.896;9.192;2023-10-13T14:46:31;8.50;;;3.20;;
7933;SDS011;4012;48.896;9.192;2023-10-13T14:49:02;11.77;;;3.27;;
7933;SDS011;4012;48.896;9.192;2023-10-13T14:51:28;5.63;;;2.87;;
7933;SDS011;4012;48.896;9.192;2023-10-13T14:53:54;5.33;;;2.70;;
7933;SDS011;4012;48.896;9.192;2023-10-13T14:56:24;11.27;;;3.03;;
7933;SDS011;4012;48.896;9.192;2023-10-13T14:58:51;14.07;;;4.00;;
7933;SDS011;4012;48.896;9.192;2023-10-13T15:01:19;8.23;;;3.07;;
7933;SDS011;4012;48.896;9.192;2023-10-13T15:03:52;6.10;;;2.77;;
7933;SDS011;4012;48.896;9.192;2023-10-13T15:06:23;16.47;;;3.47;;
7933;SDS011;4012;48.896;9.192;2023-10-13T15:08:50;7.47;;;2.97;;
7933;SDS011;4012;48.896;9.192;2023-10-13T15:11:18;12.30;;;3.13;;
7933;SDS011;4012;48.896;9.192;2023-10-13T15:13:44;13.83;;;5.87;;
7933;SDS011;4012;48.896;9.192;2023-10-13T15:16:17;5.50;;;3.37;;
7933;SDS011;4012;48.896;9.192;2023-10-13T15:18:44;8.97;;;3.93;;
7933;SDS011;4012;48.896;9.192;2023-10-13T15:21:11;5.60;;;3.60;;
7933;SDS011;4012;48.896;9.192;2023-10-13T15:24:02;8.17;;;4.20;;
7933;SDS011;4012;48.896;9.192;2023-10-13T15:26:29;6.90;;;3.10;;
7933;SDS011;4012;48.896;9.192;2023-10-13T15:28:57;7.30;;;3.70;;
7933;SDS011;4012;48.896;9.192;2023-10-13T15:31:23;7.60;;;3.63;;
7933;SDS011;4012;48.896;9.192;2023-10-13T15:34:02;6.60;;;3.57;;
7933;SDS011;4012;48.896;9.192;2023-10-13T15:36:43;5.87;;;3.10;;
7933;SDS011;4012;48.896;9.192;2023-10-13T15:39:09;6.83;;;3.13;;
7933;SDS011;4012;48.896;9.192;2023-10-13T15:41:36;8.60;;;3.90;;
7933;SDS011;4012;48.896;9.192;2023-10-13T15:44:06;9.07;;;3.97;;
7933;SDS011;4012;48.896;9.192;2023-10-13T15:46:36;7.33;;;4.00;;
7933;SDS011;4012;48.896;9.192;2023-10-13T15:49:02;10.20;;;4.20;;
7933;SDS011;4012;48.896;9.192;2023-10-13T15:51:31;9.20;;;4.47;;
7933;SDS011;4012;48.896;9.192;2023-10-13T15:53:59;7.63;;;4.70;;
7933;SDS011;4012;48.896;9.192;2023-10-13T15:56:28;8.00;;;4.43;;
7933;SDS011;4012;48.896;9.192;2023-10-13T15:58:58;11.47;;;3.90;;
7933;SDS011;4012;48.896;9.192;2023-10-13T16:01:26;7.83;;;4.13;;
7933;SDS011;4012;48.896;9.192;2023-10-13T16:03:53;7.73;;;4.13;;
7933;SDS011;4012;48.896;9.192;2023-10-13T16:06:18;7.10;;;3.90;;
7933;SDS011;4012;48.896;9.192;2023-10-13T16:08:44;7.77;;;3.70;;
7933;SDS011;4012;48.896;9.192;2023-10-13T16:11:14;10.73;;;4.40;;
7933;SDS011;4012;48.896;9.192;2023-10-13T16:13:46;7.03;;;3.90;;